Aérodrome :
LOGIN :

S'inscrire | Disclaimer

   EN    FR    IT 

 










Légende :    VFR   VFR Marginal   IFR   IFR Intensif   IFR Très Intensif
Visi : 
Plafond : 
>= 8 km
>= 3000ft
5 à 8 km
1000 à 3000 ft
1500m à 5 km
500 à 1000 ft
800 à 1500m
200 à 500 ft
< 800m
< 200 ft
Symboles :   Orages  Brouillard  Fortes neiges  Fortes précipitations  Vent > 20 kt
SIGMETs :   Divers  Orages  Givrage  Turbulence  Onde Orograph.  Cendres Volcan.






- Altitude de l'aérodrome : 327 ft
- Code IATA : BHX


EGBB - Birmingham

DERNIER METAR :
  • 221820Z 18003KT 9999 FEW043 09/06 Q1021

METARs EXPIRÉS :
  • 221750Z 18003KT 9999 FEW031 SCT043 10/07 Q1021
  • 221720Z 17003KT 9999 FEW031 SCT042 11/07 Q1021
  • 221650Z 18003KT 9999 SCT031 BKN039 12/07 Q1021
  • 221620Z 18004KT 9999 SCT038 12/06 Q1021
  • 221550Z 21004KT 170V250 9999 SCT039 13/05 Q1021

TAF TAF EGBB
Valide du 22 à 18h jusqu'au 23 à 18h UTC


221702Z 2218/2318 20010KT 9999 SCT035
BECMG 2218/2221 VRB03KT 7000
BECMG 2221/2224 4000 BR
PROB40 2300/2309 0300 FG VV///
BECMG 2308/2311 14010KT 9999 NSW
ATIS : +44 121 780 0910



MET'MAP, la Météo Aéronautique d'un coup d'oeil ! - Copyright ORBIFLY Décembre 2007 - Disclaimer

ORBIFLY MET'MAP TEAM :

Programmation & Développement : Alexandra Zaïnal
Conception & Développement : Baudouin d'Aumeries
Co-Programmation & Développement : Marc-Olivier Méhu
Soutien technique & logistique : Manuel Goepfert

Contact : metmap@orbifly.com




SOURCES & CREDITS :

   NOAA